Time;durP1;ratioP1;P1;durP2;ratioP2;P2;SDS_P1;SDS_P2;PMS_P1;PMS_P2;Temp;Humidity;BMP_temperature;BMP_pressure;BME280_temperature;BME280_humidity;BME280_pressure;Samples;Min_cycle;Max_cycle;Signal;HPM_P1;HPM_P2
2021/08/10 00:00:21;;;;;;;5.43;5.03;;;15.40;39.90;;;;;;5030232;28;20262;-53
2021/08/10 00:02:46;;;;;;;5.40;5.00;;;15.40;43.60;;;;;;5029064;28;20580;-50
2021/08/10 00:05:12;;;;;;;5.53;5.03;;;15.40;47.30;;;;;;5030432;28;20187;-50
2021/08/10 00:07:37;;;;;;;5.40;5.00;;;15.40;46.60;;;;;;5031057;28;20185;-52
2021/08/10 00:10:04;;;;;;;5.50;5.00;;;15.50;45.50;;;;;;5030655;28;20190;-52
2021/08/10 00:12:30;;;;;;;5.43;5.03;;;15.50;43.80;;;;;;5031311;28;20253;-56
2021/08/10 00:14:55;;;;;;;5.20;4.80;;;15.50;42.20;;;;;;5030834;28;20429;-50
2021/08/10 00:17:21;;;;;;;5.60;5.10;;;15.60;40.80;;;;;;5029463;28;20183;-52
2021/08/10 00:19:46;;;;;;;5.37;4.87;;;15.60;39.40;;;;;;5030885;28;20181;-51
2021/08/10 00:22:12;;;;;;;5.23;4.80;;;15.70;38.70;;;;;;5030557;28;20301;-54
2021/08/10 00:24:37;;;;;;;5.50;5.00;;;15.70;36.60;;;;;;5029519;28;20697;-53
2021/08/10 00:27:03;;;;;;;5.80;4.80;;;15.80;29.50;;;;;;5030813;28;20179;-52
2021/08/10 00:29:29;;;;;;;5.70;5.20;;;15.80;29.10;;;;;;5029988;28;20219;-50
2021/08/10 00:31:54;;;;;;;6.07;5.57;;;15.80;29.20;;;;;;5030976;28;20175;-48
2021/08/10 00:34:20;;;;;;;5.27;4.87;;;15.80;25.00;;;;;;5028877;28;20193;-50
2021/08/10 00:36:45;;;;;;;5.13;4.63;;;15.80;27.80;;;;;;5030737;28;20653;-51
2021/08/10 00:39:11;;;;;;;4.97;4.57;;;15.80;28.60;;;;;;5028378;28;20498;-55
2021/08/10 00:41:37;;;;;;;5.47;4.97;;;15.80;29.40;;;;;;5030605;28;20712;-53
2021/08/10 00:44:02;;;;;;;5.33;4.93;;;15.80;29.70;;;;;;5029283;28;20178;-52
2021/08/10 00:46:28;;;;;;;5.67;5.17;;;15.90;30.80;;;;;;5030317;28;20182;-51
2021/08/10 00:48:54;;;;;;;6.53;6.03;;;15.90;30.40;;;;;;5023824;28;20187;-51
2021/08/10 00:51:20;;;;;;;4.93;4.53;;;15.90;26.30;;;;;;5030258;28;20442;-53
2021/08/10 00:53:46;;;;;;;5.67;4.40;;;16.00;25.70;;;;;;5031861;28;20305;-51
2021/08/10 00:56:12;;;;;;;5.67;5.13;;;16.00;22.90;;;;;;5030353;28;20489;-50
2021/08/10 00:58:38;;;;;;;6.00;5.50;;;15.90;32.70;;;;;;5029542;28;20579;-49
2021/08/10 01:01:04;;;;;;;6.03;5.53;;;15.90;43.90;;;;;;5028356;28;20577;-49
2021/08/10 01:03:30;;;;;;;7.47;6.70;;;15.80;49.20;;;;;;5028950;28;20509;-52
2021/08/10 01:05:56;;;;;;;12.93;10.40;;;15.90;67.50;;;;;;5029610;28;20496;-51
2021/08/10 01:08:47;;;;;;;5.60;5.00;;;15.90;75.60;;;;;;5028752;28;20768;-50
2021/08/10 01:11:43;;;;;;;5.73;5.13;;;15.90;75.70;;;;;;5028213;28;20483;-54
2021/08/10 01:14:30;;;;;;;6.20;5.53;;;15.70;81.80;;;;;;5029409;28;20426;-52
2021/08/10 01:17:07;;;;;;;5.77;5.20;;;15.70;92.20;;;;;;5030103;28;20784;-52
2021/08/10 01:19:32;;;;;;;5.50;5.10;;;15.70;92.50;;;;;;5028586;28;20983;-50
2021/08/10 01:22:00;;;;;;;5.63;5.13;;;15.70;94.50;;;;;;5029228;28;20468;-53
2021/08/10 01:24:32;;;;;;;5.97;5.47;;;15.60;91.20;;;;;;5029111;28;20167;-52
2021/08/10 01:27:16;;;;;;;5.40;4.97;;;15.60;91.30;;;;;;5029906;28;20453;-52
2021/08/10 01:29:56;;;;;;;7.63;5.40;;;15.60;95.50;;;;;;5027531;28;20490;-52
2021/08/10 01:32:22;;;;;;;5.80;5.23;;;15.60;95.70;;;;;;5028668;28;20453;-53
2021/08/10 01:34:49;;;;;;;5.43;4.93;;;15.70;99.40;;;;;;5029158;28;20932;-55
2021/08/10 01:37:23;;;;;;;6.17;5.60;;;15.70;98.20;;;;;;5028276;28;20179;-53
2021/08/10 01:39:54;;;;;;;6.20;5.60;;;15.70;92.70;;;;;;5028967;28;20437;-52
2021/08/10 01:42:21;;;;;;;5.90;5.23;;;15.90;86.10;;;;;;5024649;28;21319;-52
2021/08/10 01:44:47;;;;;;;5.03;4.63;;;15.90;82.70;;;;;;5028308;28;20441;-50
2021/08/10 01:47:14;;;;;;;5.37;4.87;;;15.90;76.20;;;;;;5028400;28;20430;-51
2021/08/10 01:49:41;;;;;;;5.77;5.27;;;15.90;79.70;;;;;;5029540;28;20421;-52
2021/08/10 01:52:12;;;;;;;5.50;5.10;;;15.80;70.70;;;;;;5029944;28;20458;-54
2021/08/10 01:54:40;;;;;;;6.03;5.37;;;15.80;71.00;;;;;;5034840;28;20436;-54
2021/08/10 01:57:06;;;;;;;5.57;4.70;;;15.80;72.70;;;;;;5036694;28;20516;-49
2021/08/10 01:59:32;;;;;;;6.10;5.50;;;15.90;71.70;;;;;;5028979;28;21375;-50
2021/08/10 02:01:58;;;;;;;6.87;5.20;;;15.80;67.30;;;;;;5027806;28;20339;-52
2021/08/10 02:04:24;;;;;;;5.00;4.60;;;15.80;74.10;;;;;;5029063;28;20461;-53
2021/08/10 02:06:51;;;;;;;5.43;5.00;;;15.70;73.20;;;;;;5029091;28;20413;-51
2021/08/10 02:09:19;;;;;;;7.63;6.10;;;15.70;77.20;;;;;;5028872;28;20424;-51
2021/08/10 02:11:45;;;;;;;6.00;5.40;;;15.70;83.20;;;;;;5026991;28;20437;-52
2021/08/10 02:14:14;;;;;;;6.50;5.90;;;15.70;86.10;;;;;;5028939;28;20445;-49
2021/08/10 02:16:40;;;;;;;6.17;5.60;;;15.70;85.30;;;;;;5028978;28;20422;-52
2021/08/10 02:19:07;;;;;;;5.80;5.23;;;15.60;90.50;;;;;;5028851;28;20426;-53
2021/08/10 02:21:41;;;;;;;5.27;4.80;;;15.60;91.00;;;;;;5032076;28;20862;-49
2021/08/10 02:24:09;;;;;;;7.10;5.00;;;15.70;90.90;;;;;;5032977;28;20420;-49
2021/08/10 02:26:43;;;;;;;5.80;5.30;;;15.70;92.00;;;;;;5032296;28;20432;-52
2021/08/10 02:29:10;;;;;;;6.23;5.60;;;15.70;93.20;;;;;;5032422;28;20410;-53
2021/08/10 02:31:36;;;;;;;6.10;5.50;;;15.60;93.90;;;;;;5031744;28;20437;-51
2021/08/10 02:34:02;;;;;;;6.17;5.57;;;15.50;95.40;;;;;;5032396;28;20939;-50
2021/08/10 02:36:30;;;;;;;7.07;6.37;;;15.50;95.30;;;;;;5033015;28;20421;-47
2021/08/10 02:39:00;;;;;;;6.40;5.90;;;15.40;99.50;;;;;;5031097;28;20433;-52
2021/08/10 02:41:26;;;;;;;6.13;5.63;;;15.40;99.90;;;;;;5032613;28;20511;-51
2021/08/10 02:43:52;;;;;;;6.07;5.57;;;15.40;99.90;;;;;;5031881;28;20441;-52
2021/08/10 02:46:17;;;;;;;8.23;5.70;;;15.40;99.90;;;;;;5032627;28;20185;-51
2021/08/10 02:48:43;;;;;;;5.93;5.43;;;15.40;99.90;;;;;;5031922;28;20536;-50
2021/08/10 02:51:09;;;;;;;6.50;6.00;;;15.40;99.90;;;;;;5032630;28;20182;-53
2021/08/10 02:53:34;;;;;;;5.90;5.40;;;15.40;99.90;;;;;;5032140;28;20213;-49
2021/08/10 02:56:12;;;;;;;6.20;5.70;;;15.40;99.90;;;;;;5031731;28;20233;-52
2021/08/10 02:58:50;;;;;;;6.30;5.80;;;15.40;99.90;;;;;;5031917;28;20440;-55
2021/08/10 03:01:20;;;;;;;5.47;5.00;;;15.50;99.90;;;;;;5031509;28;21037;-53
2021/08/10 03:03:47;;;;;;;6.10;5.60;;;15.50;99.90;;;;;;5030174;28;20430;-54
2021/08/10 03:06:13;;;;;;;6.40;5.80;;;15.50;99.90;;;;;;5031357;28;20505;-52
2021/08/10 03:08:48;;;;;;;5.80;5.30;;;15.50;99.90;;;;;;5031435;28;20440;-52
2021/08/10 03:11:14;;;;;;;6.47;5.97;;;15.50;99.90;;;;;;5032052;28;20428;-54
2021/08/10 03:13:42;;;;;;;6.37;5.77;;;15.50;99.90;;;;;;5031322;28;20440;-54
2021/08/10 03:16:08;;;;;;;6.17;5.57;;;15.50;99.90;;;;;;5031274;28;20434;-54
2021/08/10 03:18:36;;;;;;;6.90;6.13;;;15.60;99.90;;;;;;5030621;28;20806;-52
2021/08/10 03:21:03;;;;;;;6.53;5.93;;;15.60;98.20;;;;;;5031504;28;20910;-52
2021/08/10 03:23:33;;;;;;;9.53;6.20;;;15.60;97.50;;;;;;5031770;28;20407;-50
2021/08/10 03:25:59;;;;;;;6.43;5.73;;;15.60;97.40;;;;;;5031846;28;20436;-49
2021/08/10 03:28:26;;;;;;;6.33;5.83;;;15.60;96.10;;;;;;5031923;28;21253;-50
2021/08/10 03:30:54;;;;;;;6.03;5.43;;;15.50;97.60;;;;;;5031474;28;20479;-49
2021/08/10 03:33:26;;;;;;;5.60;5.20;;;15.60;97.10;;;;;;5031332;28;20209;-54
2021/08/10 03:35:52;;;;;;;6.57;5.97;;;15.50;96.80;;;;;;5030111;28;20532;-51
2021/08/10 03:38:20;;;;;;;5.90;5.40;;;15.50;97.20;;;;;;5032038;28;20410;-50
2021/08/10 03:40:46;;;;;;;8.50;6.40;;;15.50;99.80;;;;;;5030033;28;20514;-54
2021/08/10 03:43:12;;;;;;;6.47;5.87;;;15.50;99.90;;;;;;5031611;28;21082;-51
2021/08/10 03:45:38;;;;;;;6.30;5.80;;;15.50;99.90;;;;;;5031617;28;20394;-54
2021/08/10 03:48:04;;;;;;;6.20;5.70;;;15.60;96.90;;;;;;5031853;28;20409;-51
2021/08/10 03:50:30;;;;;;;8.47;5.80;;;15.60;97.20;;;;;;5029278;28;20441;-51
2021/08/10 03:52:56;;;;;;;6.20;5.70;;;15.50;98.60;;;;;;5032071;28;20187;-50
2021/08/10 03:55:22;;;;;;;5.90;5.27;;;15.50;99.60;;;;;;5037998;28;20447;-51
2021/08/10 03:57:49;;;;;;;6.70;5.50;;;15.50;95.40;;;;;;5031572;28;20862;-54
2021/08/10 04:00:16;;;;;;;6.13;5.63;;;15.50;95.20;;;;;;5031034;28;20844;-51
2021/08/10 04:02:43;;;;;;;6.30;5.70;;;15.50;94.20;;;;;;5033861;28;20476;-50
2021/08/10 04:05:10;;;;;;;5.53;5.10;;;15.50;95.00;;;;;;5018421;28;20417;-50
2021/08/10 04:07:38;;;;;;;6.37;5.73;;;15.50;96.30;;;;;;5030749;28;21319;-51
2021/08/10 04:10:04;;;;;;;5.63;5.23;;;15.50;94.30;;;;;;5030626;28;20469;-51
2021/08/10 04:12:30;;;;;;;6.07;5.57;;;15.40;94.10;;;;;;5030537;28;20433;-52
2021/08/10 04:14:56;;;;;;;6.20;5.60;;;15.40;94.90;;;;;;5030972;28;20433;-53
2021/08/10 04:17:25;;;;;;;7.27;6.03;;;15.40;97.80;;;;;;5019924;28;20460;-49
2021/08/10 04:19:53;;;;;;;6.13;5.63;;;15.30;98.70;;;;;;5021678;28;20187;-53
2021/08/10 04:22:19;;;;;;;6.20;5.70;;;15.40;98.90;;;;;;5020641;28;20480;-52
2021/08/10 04:24:45;;;;;;;6.00;5.40;;;15.40;98.20;;;;;;5021352;28;20437;-51
2021/08/10 04:27:13;;;;;;;6.53;5.93;;;15.40;96.90;;;;;;5021091;28;20433;-49
2021/08/10 04:29:38;;;;;;;6.37;5.10;;;15.40;96.90;;;;;;5019826;28;20191;-51
2021/08/10 04:32:05;;;;;;;6.30;5.80;;;15.40;95.90;;;;;;5021850;28;20451;-48
2021/08/10 04:34:31;;;;;;;6.80;6.10;;;15.40;96.70;;;;;;5020814;28;20215;-50
2021/08/10 04:36:57;;;;;;;6.50;5.90;;;15.40;98.30;;;;;;5023507;28;21139;-52
2021/08/10 04:39:26;;;;;;;7.33;6.10;;;15.40;98.70;;;;;;5027911;28;20206;-52
2021/08/10 04:41:52;;;;;;;5.90;5.40;;;15.50;97.50;;;;;;5030013;28;20567;-54
2021/08/10 04:44:17;;;;;;;5.73;5.23;;;15.60;96.70;;;;;;5025418;28;20434;-49
2021/08/10 04:46:43;;;;;;;6.67;6.07;;;15.70;90.90;;;;;;5029935;28;20904;-51
2021/08/10 04:49:08;;;;;;;5.50;5.00;;;15.70;86.60;;;;;;5030495;28;20179;-52
2021/08/10 04:51:34;;;;;;;5.80;5.27;;;15.80;70.70;;;;;;5029634;28;20217;-51
2021/08/10 04:53:59;;;;;;;5.60;5.13;;;15.80;72.80;;;;;;5030087;28;20191;-52
2021/08/10 04:56:25;;;;;;;5.90;5.40;;;15.80;63.60;;;;;;5029138;28;20194;-51
2021/08/10 04:58:50;;;;;;;6.57;5.20;;;15.80;66.40;;;;;;5029602;28;20195;-52
2021/08/10 05:01:16;;;;;;;7.47;4.90;;;15.90;64.60;;;;;;5028870;28;20230;-50
2021/08/10 05:03:42;;;;;;;6.03;5.50;;;16.00;64.50;;;;;;5030384;28;20618;-50
2021/08/10 05:06:07;;;;;;;5.47;5.07;;;16.00;61.00;;;;;;5029130;28;20179;-54
2021/08/10 05:08:33;;;;;;;6.10;5.53;;;16.10;60.60;;;;;;5030205;28;20183;-53
2021/08/10 05:10:59;;;;;;;6.33;5.63;;;16.30;52.00;;;;;;5029254;28;20187;-52
2021/08/10 05:13:25;;;;;;;6.30;5.30;;;16.40;45.30;;;;;;5030357;28;21028;-47
2021/08/10 05:15:50;;;;;;;5.43;4.97;;;16.40;41.40;;;;;;5029886;28;20422;-52
2021/08/10 05:18:16;;;;;;;5.90;5.50;;;16.50;32.50;;;;;;5030031;28;20214;-51
2021/08/10 05:20:42;;;;;;;5.20;4.77;;;16.50;31.10;;;;;;5028144;28;20230;-53
2021/08/10 05:23:07;;;;;;;6.03;5.50;;;16.50;26.60;;;;;;5029744;28;20672;-49
2021/08/10 05:25:33;;;;;;;5.67;5.17;;;16.50;26.50;;;;;;5028852;28;20183;-51
2021/08/10 05:27:58;;;;;;;5.27;4.73;;;16.60;26.80;;;;;;5029326;28;20664;-51
2021/08/10 05:30:24;;;;;;;5.90;5.30;;;16.70;23.70;;;;;;5028478;28;20178;-53
2021/08/10 05:32:49;;;;;;;6.77;5.60;;;16.90;20.20;;;;;;5028523;28;20183;-52
2021/08/10 05:35:15;;;;;;;6.73;6.00;;;16.90;14.20;;;;;;5029307;28;20641;-51
2021/08/10 05:37:40;;;;;;;5.40;4.90;;;17.00;13.10;;;;;;5029347;28;20557;-52
2021/08/10 05:40:07;;;;;;;5.93;5.20;;;17.10;8.50;;;;;;5027801;28;20241;-53
2021/08/10 05:42:32;;;;;;;5.60;5.07;;;17.20;3.70;;;;;;5029391;28;20226;-50
2021/08/10 05:44:58;;;;;;;6.23;5.67;;;17.20;1.00;;;;;;5029179;28;20422;-49
2021/08/10 05:47:23;;;;;;;5.90;5.40;;;17.20;1.00;;;;;;5029058;28;20690;-54
2021/08/10 05:49:49;;;;;;;6.17;5.10;;;17.30;1.00;;;;;;5029747;28;20185;-51
2021/08/10 05:52:15;;;;;;;5.93;5.33;;;17.30;1.00;;;;;;5028292;28;20589;-50
2021/08/10 05:54:40;;;;;;;5.17;4.77;;;17.50;1.00;;;;;;5028867;28;20180;-50
2021/08/10 05:57:06;;;;;;;5.27;4.87;;;17.60;1.00;;;;;;5026451;28;20991;-47
2021/08/10 05:59:32;;;;;;;5.30;4.80;;;17.70;1.00;;;;;;5028386;28;20213;-50
2021/08/10 06:01:58;;;;;;;4.90;4.43;;;17.70;1.00;;;;;;5027585;28;20694;-52
2021/08/10 06:04:24;;;;;;;5.67;5.07;;;17.70;1.00;;;;;;5024447;28;20707;-50
2021/08/10 06:06:49;;;;;;;7.00;5.13;;;17.80;1.00;;;;;;5029359;28;20428;-52
2021/08/10 06:09:15;;;;;;;5.60;4.87;;;18.00;1.00;;;;;;5027191;28;20218;-55
2021/08/10 06:11:40;;;;;;;5.90;5.20;;;18.10;1.00;;;;;;5028519;28;20664;-53
2021/08/10 06:14:06;;;;;;;4.70;4.40;;;18.20;1.00;;;;;;5027947;28;20265;-53
2021/08/10 06:16:33;;;;;;;7.27;5.47;;;18.30;1.00;;;;;;5029288;28;20613;-51
2021/08/10 06:18:59;;;;;;;5.50;5.00;;;18.30;1.00;;;;;;5028516;28;20186;-50
2021/08/10 06:21:25;;;;;;;5.27;4.87;;;18.30;1.00;;;;;;5028752;28;20416;-49
2021/08/10 06:23:51;;;;;;;5.33;4.80;;;18.50;1.00;;;;;;5027306;28;20919;-52
2021/08/10 06:26:17;;;;;;;9.00;4.67;;;18.50;1.00;;;;;;5028961;28;20425;-54
2021/08/10 06:28:42;;;;;;;5.00;4.60;;;18.70;1.00;;;;;;5029295;28;20238;-54
2021/08/10 06:31:09;;;;;;;5.30;4.80;;;18.80;1.00;;;;;;5029588;28;21018;-49
2021/08/10 06:33:35;;;;;;;4.80;4.40;;;18.90;1.00;;;;;;5027587;28;20190;-53
2021/08/10 06:36:00;;;;;;;5.13;4.73;;;18.90;1.00;;;;;;5023396;28;20422;-50
2021/08/10 06:38:26;;;;;;;5.40;4.90;;;19.00;1.00;;;;;;5026670;28;20950;-51
2021/08/10 06:40:52;;;;;;;5.63;5.10;;;19.20;1.00;;;;;;5027207;28;20187;-54
2021/08/10 06:43:17;;;;;;;5.80;5.30;;;19.50;1.00;;;;;;5028231;28;20214;-55
2021/08/10 06:45:43;;;;;;;5.20;4.90;;;19.70;1.00;;;;;;5028187;28;20209;-50
2021/08/10 06:48:08;;;;;;;4.90;4.60;;;19.90;1.00;;;;;;5029189;28;20183;-53
2021/08/10 06:50:34;;;;;;;9.97;4.70;;;19.90;99.90;;;;;;5028681;28;20640;-52
2021/08/10 06:53:00;;;;;;;5.27;4.87;;;19.90;1.00;;;;;;5029841;28;20197;-52
2021/08/10 06:55:25;;;;;;;5.40;5.00;;;20.00;99.90;;;;;;5027769;28;20930;-51
2021/08/10 06:57:51;;;;;;;5.40;5.00;;;20.00;99.90;;;;;;5028033;28;20235;-55
2021/08/10 07:00:17;;;;;;;5.67;5.27;;;20.00;99.90;;;;;;5027055;28;20234;-50
2021/08/10 07:02:42;;;;;;;5.70;5.20;;;20.00;99.90;;;;;;5028060;28;20215;-48
2021/08/10 07:05:09;;;;;;;4.97;4.60;;;20.10;99.90;;;;;;5026999;28;20184;-53
2021/08/10 07:07:34;;;;;;;5.90;5.40;;;20.20;52.00;;;;;;5016711;28;20179;-52
2021/08/10 07:10:02;;;;;;;6.00;4.93;;;20.20;24.90;;;;;;5030172;28;20471;-54
2021/08/10 07:12:27;;;;;;;4.60;4.20;;;20.40;1.00;;;;;;5031324;28;20240;-49
2021/08/10 07:14:53;;;;;;;5.90;5.50;;;20.60;1.00;;;;;;5030988;28;21136;-50
2021/08/10 07:17:18;;;;;;;5.47;4.97;;;20.80;99.90;;;;;;5030759;28;20240;-49
2021/08/10 07:19:44;;;;;;;5.50;5.00;;;21.00;99.90;;;;;;5027769;28;20183;-51
2021/08/10 07:22:10;;;;;;;5.67;5.17;;;21.30;99.90;;;;;;5030928;28;20541;-51
2021/08/10 07:24:35;;;;;;;5.67;5.27;;;21.50;35.00;;;;;;5029592;28;20179;-52
2021/08/10 07:27:01;;;;;;;5.80;5.40;;;21.80;99.90;;;;;;5029154;28;20191;-49
2021/08/10 07:29:27;;;;;;;5.17;4.77;;;22.00;99.90;;;;;;5031185;28;20171;-53
2021/08/10 07:31:52;;;;;;;5.40;4.90;;;22.10;99.90;;;;;;5029515;28;20260;-48
2021/08/10 07:34:18;;;;;;;6.20;5.70;;;22.10;99.90;;;;;;5030392;28;20266;-51
2021/08/10 07:36:44;;;;;;;5.43;5.03;;;22.20;99.90;;;;;;5028474;28;20245;-51
2021/08/10 07:39:09;;;;;;;5.57;5.17;;;22.10;1.00;;;;;;5027678;28;20278;-46
2021/08/10 07:41:35;;;;;;;5.17;4.83;;;22.00;1.00;;;;;;5028852;28;20239;-49
2021/08/10 07:44:00;;;;;;;5.93;5.43;;;22.10;99.90;;;;;;5027921;28;20193;-54
2021/08/10 07:46:26;;;;;;;5.80;5.40;;;22.10;1.00;;;;;;5028979;28;20262;-54
2021/08/10 07:48:51;;;;;;;5.70;5.40;;;22.10;1.00;;;;;;5031837;28;20902;-49
2021/08/10 07:51:17;;;;;;;5.30;5.00;;;22.00;1.00;;;;;;5030438;28;20183;-53
2021/08/10 07:53:43;;;;;;;5.97;5.47;;;22.10;99.90;;;;;;5029589;28;20191;-51
2021/08/10 07:56:11;;;;;;;6.00;5.50;;;22.10;99.90;;;;;;5030307;28;20426;-49
2021/08/10 07:58:36;;;;;;;6.17;5.77;;;22.10;1.00;;;;;;5028827;28;20276;-51
2021/08/10 08:01:04;;;;;;;6.10;5.60;;;22.20;99.90;;;;;;5028601;28;20556;-54
2021/08/10 08:03:29;;;;;;;6.40;5.80;;;22.40;99.90;;;;;;5024254;28;20898;-53
2021/08/10 08:05:55;;;;;;;6.03;5.60;;;22.50;1.00;;;;;;5029147;28;20415;-53
2021/08/10 08:08:22;;;;;;;6.00;5.60;;;22.60;1.00;;;;;;5028056;28;20999;-52
2021/08/10 08:10:47;;;;;;;6.20;5.80;;;22.60;99.90;;;;;;5030426;28;20297;-51
2021/08/10 08:13:13;;;;;;;6.20;5.80;;;22.90;99.90;;;;;;5028454;28;20432;-50
2021/08/10 08:15:38;;;;;;;6.50;5.87;;;23.10;1.00;;;;;;5029987;28;20187;-52
2021/08/10 08:18:04;;;;;;;6.27;5.83;;;23.00;1.00;;;;;;5027145;28;20190;-51
2021/08/10 08:20:30;;;;;;;7.10;6.40;;;23.20;1.00;;;;;;5026171;28;20256;-53
2021/08/10 08:22:55;;;;;;;6.67;6.17;;;23.30;1.00;;;;;;5023364;28;20214;-52
2021/08/10 08:25:21;;;;;;;5.90;5.37;;;23.40;99.90;;;;;;5029081;28;20790;-54
2021/08/10 08:27:46;;;;;;;6.10;5.70;;;23.60;99.90;;;;;;5026076;28;20182;-52
2021/08/10 08:30:13;;;;;;;6.00;5.63;;;23.90;99.90;;;;;;5028244;28;20183;-50
2021/08/10 08:32:38;;;;;;;6.40;6.00;;;23.90;1.00;;;;;;5025885;28;20175;-53
2021/08/10 08:35:04;;;;;;;6.63;6.07;;;23.90;1.00;;;;;;5029120;28;20402;-52
2021/08/10 08:37:30;;;;;;;5.97;5.57;;;23.90;1.00;;;;;;5028229;28;20179;-53
2021/08/10 08:39:56;;;;;;;5.60;5.30;;;24.00;99.90;;;;;;5027500;28;20487;-51
2021/08/10 08:42:22;;;;;;;6.47;6.07;;;24.10;1.00;;;;;;5035092;28;20974;-49
2021/08/10 08:44:49;;;;;;;6.70;6.20;;;24.20;99.90;;;;;;5028435;28;20266;-49
2021/08/10 08:47:20;;;;;;;6.03;5.63;;;24.10;99.90;;;;;;5025880;28;20425;-50
2021/08/10 08:49:47;;;;;;;6.67;6.07;;;24.10;99.90;;;;;;5027486;28;20422;-53
2021/08/10 08:52:15;;;;;;;6.20;5.80;;;23.90;1.00;;;;;;5027032;28;20452;-50
2021/08/10 08:54:41;;;;;;;6.50;6.00;;;23.70;1.00;;;;;;5025385;28;20442;-51
2021/08/10 08:57:07;;;;;;;6.20;5.80;;;23.70;99.90;;;;;;5027517;28;20437;-51
2021/08/10 08:59:33;;;;;;;6.60;6.20;;;23.60;1.00;;;;;;5024084;28;20495;-54
2021/08/10 09:02:00;;;;;;;6.10;5.63;;;23.50;1.00;;;;;;5026789;28;20478;-53
2021/08/10 09:04:26;;;;;;;5.93;5.60;;;23.50;1.00;;;;;;5026720;28;20480;-52
2021/08/10 09:06:54;;;;;;;6.30;5.87;;;23.60;2.50;;;;;;5027309;28;20896;-51
2021/08/10 09:09:26;;;;;;;6.40;5.80;;;23.70;1.00;;;;;;5025706;28;20433;-53
2021/08/10 09:11:57;;;;;;;6.27;5.87;;;23.90;1.00;;;;;;5028265;28;20413;-52
2021/08/10 09:14:24;;;;;;;6.13;5.73;;;23.90;1.00;;;;;;5025901;28;20441;-53
2021/08/10 09:17:09;;;;;;;5.90;5.50;;;24.10;1.00;;;;;;5028348;28;20968;-53
2021/08/10 09:19:57;;;;;;;5.70;5.20;;;24.20;1.00;;;;;;5024490;28;20426;-53
2021/08/10 09:22:29;;;;;;;5.90;5.50;;;24.60;1.00;;;;;;5026843;28;20515;-52
2021/08/10 09:25:15;;;;;;;6.10;5.60;;;24.90;1.00;;;;;;5028248;28;20411;-52
2021/08/10 09:27:41;;;;;;;6.30;5.90;;;25.20;99.90;;;;;;5027340;28;20476;-49
2021/08/10 09:30:10;;;;;;;7.07;6.57;;;25.30;99.90;;;;;;5025333;28;20434;-51
2021/08/10 09:32:51;;;;;;;6.40;6.00;;;25.60;99.90;;;;;;5027048;28;20420;-50
2021/08/10 09:35:17;;;;;;;6.50;5.90;;;26.20;90.60;;;;;;5025912;28;21352;-54
2021/08/10 09:38:18;;;;;;;7.17;6.57;;;26.70;1.00;;;;;;5016209;28;20449;-51
2021/08/10 09:40:46;;;;;;;7.60;6.97;;;27.30;1.00;;;;;;5028542;28;20846;-55
2021/08/10 09:43:32;;;;;;;6.20;5.80;;;27.50;1.00;;;;;;5025636;28;20473;-52
2021/08/10 09:46:20;;;;;;;12.23;9.70;;;27.20;1.00;;;;;;5028636;28;21228;-50
2021/08/10 09:48:48;;;;;;;8.57;7.70;;;27.30;1.00;;;;;;5028634;28;20513;-50
2021/08/10 09:51:16;;;;;;;7.30;6.80;;;27.20;1.00;;;;;;5026524;28;20519;-55
2021/08/10 09:53:54;;;;;;;8.67;7.87;;;27.50;1.00;;;;;;5023911;28;20476;-49
2021/08/10 09:56:19;;;;;;;7.10;6.50;;;27.60;1.00;;;;;;5025003;28;20435;-53
2021/08/10 09:58:56;;;;;;;7.23;6.63;;;27.70;99.90;;;;;;5024248;28;21207;-49
2021/08/10 10:01:40;;;;;;;5.87;5.47;;;27.60;99.90;;;;;;5026965;28;20578;-54
2021/08/10 10:04:16;;;;;;;5.30;4.97;;;27.30;99.90;;;;;;5025278;28;20424;-52
2021/08/10 10:06:43;;;;;;;5.60;5.17;;;27.20;99.90;;;;;;5021748;28;20433;-55
2021/08/10 10:09:09;;;;;;;4.97;4.77;;;27.20;99.90;;;;;;5023359;28;20433;-53
2021/08/10 10:11:37;;;;;;;4.90;4.70;;;27.10;99.90;;;;;;5021164;28;20432;-56
2021/08/10 10:14:03;;;;;;;5.40;5.10;;;27.00;99.90;;;;;;5024130;28;20261;-54
2021/08/10 10:16:29;;;;;;;5.20;4.80;;;27.00;99.90;;;;;;5023174;28;20417;-56
2021/08/10 10:19:02;;;;;;;5.43;5.03;;;26.90;99.90;;;;;;5024137;28;20534;-52
2021/08/10 10:21:27;;;;;;;5.40;5.00;;;26.80;99.90;;;;;;5024085;28;20436;-52
2021/08/10 10:23:54;;;;;;;4.90;4.57;;;26.90;99.90;;;;;;5024074;28;20430;-51
2021/08/10 10:26:21;;;;;;;5.40;5.00;;;27.00;99.90;;;;;;5021838;28;20186;-52
2021/08/10 10:28:48;;;;;;;5.93;5.27;;;27.30;99.90;;;;;;5027292;28;20449;-52
2021/08/10 10:31:15;;;;;;;5.27;4.97;;;27.30;99.90;;;;;;5026513;28;20494;-48
2021/08/10 10:33:41;;;;;;;5.97;5.57;;;27.20;99.90;;;;;;5027209;28;20486;-52
2021/08/10 10:36:08;;;;;;;5.33;5.03;;;27.00;99.90;;;;;;5027291;28;21157;-52
2021/08/10 10:38:34;;;;;;;5.40;5.10;;;26.70;99.90;;;;;;5027450;28;20531;-52
2021/08/10 10:41:00;;;;;;;5.70;5.40;;;26.30;99.90;;;;;;5029706;28;20511;-52
2021/08/10 10:43:27;;;;;;;6.83;5.60;;;26.00;99.90;;;;;;5031749;28;20725;-53
2021/08/10 10:45:54;;;;;;;5.97;5.57;;;25.60;99.90;;;;;;5026667;28;20441;-51
2021/08/10 10:48:25;;;;;;;5.23;4.80;;;25.20;99.90;;;;;;5025210;28;20848;-55
2021/08/10 10:51:11;;;;;;;5.07;4.77;;;24.80;99.90;;;;;;5024816;28;20411;-54
2021/08/10 10:53:38;;;;;;;5.23;4.93;;;24.50;1.00;;;;;;5026295;28;20811;-53
2021/08/10 10:56:24;;;;;;;4.80;4.40;;;24.70;1.00;;;;;;5028227;28;20448;-52
2021/08/10 10:58:49;;;;;;;5.10;4.80;;;25.20;99.90;;;;;;5029833;28;20432;-51
2021/08/10 11:01:18;;;;;;;4.90;4.50;;;25.50;99.90;;;;;;5027317;28;20862;-51
2021/08/10 11:04:08;;;;;;;5.33;4.80;;;26.40;99.90;;;;;;5028208;28;20210;-55
2021/08/10 11:06:36;;;;;;;5.63;4.80;;;27.50;99.90;;;;;;5026910;28;20425;-53
2021/08/10 11:09:04;;;;;;;4.83;4.43;;;28.10;99.90;;;;;;5029197;28;20409;-52
2021/08/10 11:11:51;;;;;;;4.63;4.33;;;28.80;99.90;;;;;;5024472;28;20434;-52
2021/08/10 11:14:35;;;;;;;4.87;4.50;;;29.40;99.90;;;;;;5024907;28;20419;-52
2021/08/10 11:17:14;;;;;;;4.57;4.30;;;30.10;99.90;;;;;;5026672;28;20417;-54
2021/08/10 11:19:42;;;;;;;4.87;4.60;;;30.90;99.90;;;;;;5025954;28;20783;-54
2021/08/10 11:22:17;;;;;;;4.50;4.30;;;31.30;99.90;;;;;;5027224;28;20488;-49
2021/08/10 11:24:53;;;;;;;4.73;4.53;;;31.60;99.90;;;;;;5027668;28;20418;-50
2021/08/10 11:27:40;;;;;;;4.90;4.70;;;32.20;99.90;;;;;;5028829;28;20452;-53
2021/08/10 11:30:09;;;;;;;4.40;4.20;;;32.50;99.90;;;;;;5029020;28;20414;-52
2021/08/10 11:32:38;;;;;;;4.40;4.20;;;32.10;99.90;;;;;;5028227;28;20548;-53
2021/08/10 11:35:35;;;;;;;5.03;4.73;;;31.40;99.90;;;;;;5026076;28;20429;-54
2021/08/10 11:38:15;;;;;;;4.80;4.40;;;31.40;99.90;;;;;;5028181;28;20414;-52
2021/08/10 11:40:49;;;;;;;5.10;4.70;;;31.30;99.90;;;;;;5027791;28;20421;-53
2021/08/10 11:43:15;;;;;;;5.20;4.83;;;31.10;99.90;;;;;;5026978;28;20813;-48
2021/08/10 11:45:41;;;;;;;5.30;4.80;;;31.10;99.90;;;;;;5021814;28;20430;-51
2021/08/10 11:48:07;;;;;;;4.83;4.53;;;31.40;99.90;;;;;;5024707;28;20544;-53
2021/08/10 11:50:35;;;;;;;4.93;4.73;;;31.60;99.90;;;;;;5022894;28;20410;-52
2021/08/10 11:53:02;;;;;;;5.20;4.90;;;31.50;99.90;;;;;;5023695;28;20438;-53
2021/08/10 11:55:36;;;;;;;5.40;5.10;;;31.80;99.90;;;;;;5026518;28;20520;-54
2021/08/10 11:58:06;;;;;;;5.37;5.07;;;31.90;99.90;;;;;;5027098;28;20445;-50
2021/08/10 12:00:35;;;;;;;5.10;4.90;;;32.50;99.90;;;;;;5022732;28;21386;-54
2021/08/10 12:03:02;;;;;;;5.00;4.70;;;33.20;99.90;;;;;;5028680;28;20814;-50
2021/08/10 12:05:28;;;;;;;4.93;4.63;;;34.00;99.90;;;;;;5029675;28;20456;-50
2021/08/10 12:07:56;;;;;;;5.20;4.80;;;34.40;99.90;;;;;;5029898;28;20453;-53
2021/08/10 12:10:28;;;;;;;5.30;5.00;;;34.30;99.90;;;;;;5030272;28;20421;-51
2021/08/10 12:12:54;;;;;;;5.20;5.00;;;35.20;99.90;;;;;;5029495;28;20966;-53
2021/08/10 12:15:39;;;;;;;5.47;5.17;;;35.60;99.90;;;;;;5029736;28;20520;-51
2021/08/10 12:18:05;;;;;;;4.97;4.77;;;35.30;99.90;;;;;;5029209;28;20175;-54
2021/08/10 12:20:31;;;;;;;5.07;4.67;;;34.40;99.90;;;;;;5029616;28;20480;-51
2021/08/10 12:23:05;;;;;;;5.23;4.93;;;34.10;99.90;;;;;;5029232;28;20199;-53
2021/08/10 12:25:31;;;;;;;4.90;4.60;;;34.30;99.90;;;;;;5029068;28;20183;-49
2021/08/10 12:28:01;;;;;;;5.20;4.70;;;34.90;99.90;;;;;;5029689;28;20892;-52
2021/08/10 12:30:29;;;;;;;5.17;4.87;;;34.80;99.90;;;;;;5021737;28;20414;-48
2021/08/10 12:33:09;;;;;;;5.10;4.80;;;34.70;99.90;;;;;;5029454;28;20516;-52
2021/08/10 12:35:35;;;;;;;4.37;4.17;;;35.10;99.90;;;;;;5030159;28;20429;-50
2021/08/10 12:38:02;;;;;;;5.23;4.77;;;35.20;99.90;;;;;;5030289;28;20414;-51
2021/08/10 12:40:28;;;;;;;4.50;4.20;;;35.50;99.90;;;;;;5030106;28;20183;-54
2021/08/10 12:42:54;;;;;;;5.13;4.90;;;36.10;99.90;;;;;;5028720;28;20460;-54
2021/08/10 12:45:20;;;;;;;4.77;4.57;;;36.50;99.90;;;;;;5029811;28;20656;-50
2021/08/10 12:47:45;;;;;;;5.30;5.00;;;36.50;99.90;;;;;;5027413;28;20432;-52
2021/08/10 12:50:25;;;;;;;5.10;4.90;;;36.20;99.90;;;;;;5025403;28;20174;-53
2021/08/10 12:52:52;;;;;;;5.23;4.93;;;35.90;99.90;;;;;;5030615;28;20298;-54